sensor_id;sensor_type;location;lat;lon;timestamp;P1;durP1;ratioP1;P2;durP2;ratioP2
76852;SDS011;65825;52.232;10.566;2023-11-18T00:01:21;0.08;;;0.08;;
76852;SDS011;65825;52.232;10.566;2023-11-18T00:04:44;0.00;;;0.00;;
76852;SDS011;65825;52.232;10.566;2023-11-18T00:08:08;0.10;;;0.10;;
76852;SDS011;65825;52.232;10.566;2023-11-18T00:11:32;0.10;;;0.10;;
76852;SDS011;65825;52.232;10.566;2023-11-18T00:14:56;0.00;;;0.00;;
76852;SDS011;65825;52.232;10.566;2023-11-18T00:18:20;0.00;;;0.00;;
76852;SDS011;65825;52.232;10.566;2023-11-18T00:21:44;0.00;;;0.00;;
76852;SDS011;65825;52.232;10.566;2023-11-18T00:25:08;0.00;;;0.00;;
76852;SDS011;65825;52.232;10.566;2023-11-18T00:28:32;0.00;;;0.00;;
76852;SDS011;65825;52.232;10.566;2023-11-18T00:31:57;0.00;;;0.00;;
76852;SDS011;65825;52.232;10.566;2023-11-18T00:35:21;0.00;;;0.00;;
76852;SDS011;65825;52.232;10.566;2023-11-18T00:38:45;0.00;;;0.00;;
76852;SDS011;65825;52.232;10.566;2023-11-18T00:42:08;0.00;;;0.00;;
76852;SDS011;65825;52.232;10.566;2023-11-18T00:45:33;0.00;;;0.00;;
76852;SDS011;65825;52.232;10.566;2023-11-18T00:48:57;0.03;;;0.03;;
76852;SDS011;65825;52.232;10.566;2023-11-18T00:52:22;0.00;;;0.00;;
76852;SDS011;65825;52.232;10.566;2023-11-18T00:55:46;0.05;;;0.05;;
76852;SDS011;65825;52.232;10.566;2023-11-18T00:59:09;0.00;;;0.00;;
76852;SDS011;65825;52.232;10.566;2023-11-18T01:02:38;0.00;;;0.00;;
76852;SDS011;65825;52.232;10.566;2023-11-18T01:06:03;0.00;;;0.00;;
76852;SDS011;65825;52.232;10.566;2023-11-18T01:09:27;0.00;;;0.00;;
76852;SDS011;65825;52.232;10.566;2023-11-18T01:12:52;0.10;;;0.10;;
76852;SDS011;65825;52.232;10.566;2023-11-18T01:16:16;0.10;;;0.10;;
76852;SDS011;65825;52.232;10.566;2023-11-18T01:19:41;0.20;;;0.08;;
76852;SDS011;65825;52.232;10.566;2023-11-18T01:23:05;0.00;;;0.00;;
76852;SDS011;65825;52.232;10.566;2023-11-18T01:26:29;0.03;;;0.03;;
76852;SDS011;65825;52.232;10.566;2023-11-18T01:29:53;0.00;;;0.00;;
76852;SDS011;65825;52.232;10.566;2023-11-18T01:33:17;0.10;;;0.10;;
76852;SDS011;65825;52.232;10.566;2023-11-18T01:36:42;0.17;;;0.00;;
76852;SDS011;65825;52.232;10.566;2023-11-18T01:40:06;0.17;;;0.10;;
76852;SDS011;65825;52.232;10.566;2023-11-18T01:43:30;0.00;;;0.00;;
76852;SDS011;65825;52.232;10.566;2023-11-18T01:46:55;0.00;;;0.00;;
76852;SDS011;65825;52.232;10.566;2023-11-18T01:50:19;0.00;;;0.00;;
76852;SDS011;65825;52.232;10.566;2023-11-18T01:53:45;0.00;;;0.00;;
76852;SDS011;65825;52.232;10.566;2023-11-18T01:57:12;0.00;;;0.00;;
76852;SDS011;65825;52.232;10.566;2023-11-18T02:00:38;0.00;;;0.00;;
76852;SDS011;65825;52.232;10.566;2023-11-18T02:04:04;0.00;;;0.00;;
76852;SDS011;65825;52.232;10.566;2023-11-18T02:07:31;0.00;;;0.00;;
76852;SDS011;65825;52.232;10.566;2023-11-18T02:10:57;0.00;;;0.00;;
76852;SDS011;65825;52.232;10.566;2023-11-18T02:14:34;0.00;;;0.00;;
76852;SDS011;65825;52.232;10.566;2023-11-18T02:18:01;0.00;;;0.00;;
76852;SDS011;65825;52.232;10.566;2023-11-18T02:21:27;0.10;;;0.10;;
76852;SDS011;65825;52.232;10.566;2023-11-18T02:24:53;0.00;;;0.00;;
76852;SDS011;65825;52.232;10.566;2023-11-18T02:28:17;0.00;;;0.00;;
76852;SDS011;65825;52.232;10.566;2023-11-18T02:31:41;0.00;;;0.00;;
76852;SDS011;65825;52.232;10.566;2023-11-18T02:35:12;0.05;;;0.05;;
76852;SDS011;65825;52.232;10.566;2023-11-18T02:38:50;0.00;;;0.00;;
76852;SDS011;65825;52.232;10.566;2023-11-18T02:42:18;0.00;;;0.00;;
76852;SDS011;65825;52.232;10.566;2023-11-18T02:45:44;0.00;;;0.00;;
76852;SDS011;65825;52.232;10.566;2023-11-18T02:49:08;0.10;;;0.10;;
76852;SDS011;65825;52.232;10.566;2023-11-18T02:52:36;0.00;;;0.00;;
76852;SDS011;65825;52.232;10.566;2023-11-18T02:56:00;0.00;;;0.00;;
76852;SDS011;65825;52.232;10.566;2023-11-18T02:59:24;0.05;;;0.05;;
76852;SDS011;65825;52.232;10.566;2023-11-18T03:02:48;0.00;;;0.00;;
76852;SDS011;65825;52.232;10.566;2023-11-18T03:06:12;0.00;;;0.00;;
76852;SDS011;65825;52.232;10.566;2023-11-18T03:09:36;0.00;;;0.00;;
76852;SDS011;65825;52.232;10.566;2023-11-18T03:13:00;0.00;;;0.00;;
76852;SDS011;65825;52.232;10.566;2023-11-18T03:16:24;0.00;;;0.00;;
76852;SDS011;65825;52.232;10.566;2023-11-18T03:19:48;0.08;;;0.08;;
76852;SDS011;65825;52.232;10.566;2023-11-18T03:23:13;0.00;;;0.00;;
76852;SDS011;65825;52.232;10.566;2023-11-18T03:26:37;0.00;;;0.00;;
76852;SDS011;65825;52.232;10.566;2023-11-18T03:30:01;0.05;;;0.05;;
76852;SDS011;65825;52.232;10.566;2023-11-18T03:33:25;0.00;;;0.00;;
76852;SDS011;65825;52.232;10.566;2023-11-18T03:36:49;0.00;;;0.00;;
76852;SDS011;65825;52.232;10.566;2023-11-18T03:40:13;0.03;;;0.03;;
76852;SDS011;65825;52.232;10.566;2023-11-18T03:43:37;0.10;;;0.10;;
76852;SDS011;65825;52.232;10.566;2023-11-18T03:47:02;0.00;;;0.00;;
76852;SDS011;65825;52.232;10.566;2023-11-18T03:50:26;0.00;;;0.00;;
76852;SDS011;65825;52.232;10.566;2023-11-18T03:53:50;0.00;;;0.00;;
76852;SDS011;65825;52.232;10.566;2023-11-18T03:57:14;0.00;;;0.00;;
76852;SDS011;65825;52.232;10.566;2023-11-18T04:00:37;0.10;;;0.10;;
76852;SDS011;65825;52.232;10.566;2023-11-18T04:04:01;0.00;;;0.00;;
76852;SDS011;65825;52.232;10.566;2023-11-18T04:07:25;0.00;;;0.00;;
76852;SDS011;65825;52.232;10.566;2023-11-18T04:10:50;0.00;;;0.00;;
76852;SDS011;65825;52.232;10.566;2023-11-18T04:14:14;0.00;;;0.00;;
76852;SDS011;65825;52.232;10.566;2023-11-18T04:17:38;0.00;;;0.00;;
76852;SDS011;65825;52.232;10.566;2023-11-18T04:21:02;0.00;;;0.00;;
76852;SDS011;65825;52.232;10.566;2023-11-18T04:24:25;0.00;;;0.00;;
76852;SDS011;65825;52.232;10.566;2023-11-18T04:27:50;0.10;;;0.10;;
76852;SDS011;65825;52.232;10.566;2023-11-18T04:31:14;0.00;;;0.00;;
76852;SDS011;65825;52.232;10.566;2023-11-18T04:34:39;0.00;;;0.00;;
76852;SDS011;65825;52.232;10.566;2023-11-18T04:38:02;0.00;;;0.00;;
76852;SDS011;65825;52.232;10.566;2023-11-18T04:41:27;0.20;;;0.20;;
76852;SDS011;65825;52.232;10.566;2023-11-18T04:44:54;0.00;;;0.00;;
76852;SDS011;65825;52.232;10.566;2023-11-18T04:48:19;0.00;;;0.00;;
76852;SDS011;65825;52.232;10.566;2023-11-18T04:51:44;0.10;;;0.05;;
76852;SDS011;65825;52.232;10.566;2023-11-18T04:55:07;0.10;;;0.10;;
76852;SDS011;65825;52.232;10.566;2023-11-18T04:58:36;0.10;;;0.10;;
76852;SDS011;65825;52.232;10.566;2023-11-18T05:02:00;0.10;;;0.10;;
76852;SDS011;65825;52.232;10.566;2023-11-18T05:05:24;0.00;;;0.00;;
76852;SDS011;65825;52.232;10.566;2023-11-18T05:08:48;0.08;;;0.08;;
76852;SDS011;65825;52.232;10.566;2023-11-18T05:12:12;0.00;;;0.00;;
76852;SDS011;65825;52.232;10.566;2023-11-18T05:15:36;0.00;;;0.00;;
76852;SDS011;65825;52.232;10.566;2023-11-18T05:18:59;0.00;;;0.00;;
76852;SDS011;65825;52.232;10.566;2023-11-18T05:22:25;0.00;;;0.00;;
76852;SDS011;65825;52.232;10.566;2023-11-18T05:25:49;0.00;;;0.00;;
76852;SDS011;65825;52.232;10.566;2023-11-18T05:29:13;0.00;;;0.00;;
76852;SDS011;65825;52.232;10.566;2023-11-18T05:32:37;0.00;;;0.00;;
76852;SDS011;65825;52.232;10.566;2023-11-18T05:36:01;0.00;;;0.00;;
76852;SDS011;65825;52.232;10.566;2023-11-18T05:39:25;0.10;;;0.10;;
76852;SDS011;65825;52.232;10.566;2023-11-18T05:42:50;0.00;;;0.00;;
76852;SDS011;65825;52.232;10.566;2023-11-18T05:46:16;0.08;;;0.03;;
76852;SDS011;65825;52.232;10.566;2023-11-18T05:49:40;0.00;;;0.00;;
76852;SDS011;65825;52.232;10.566;2023-11-18T05:53:04;0.00;;;0.00;;
76852;SDS011;65825;52.232;10.566;2023-11-18T05:56:28;0.20;;;0.00;;
76852;SDS011;65825;52.232;10.566;2023-11-18T05:59:52;0.00;;;0.00;;
76852;SDS011;65825;52.232;10.566;2023-11-18T06:03:16;0.00;;;0.00;;
76852;SDS011;65825;52.232;10.566;2023-11-18T06:06:40;0.00;;;0.00;;
76852;SDS011;65825;52.232;10.566;2023-11-18T06:10:08;0.10;;;0.10;;
76852;SDS011;65825;52.232;10.566;2023-11-18T06:13:38;0.00;;;0.00;;
76852;SDS011;65825;52.232;10.566;2023-11-18T06:17:02;0.10;;;0.10;;
76852;SDS011;65825;52.232;10.566;2023-11-18T06:20:26;0.00;;;0.00;;
76852;SDS011;65825;52.232;10.566;2023-11-18T06:23:55;0.00;;;0.00;;
76852;SDS011;65825;52.232;10.566;2023-11-18T06:27:19;0.00;;;0.00;;
76852;SDS011;65825;52.232;10.566;2023-11-18T06:30:43;0.00;;;0.00;;
76852;SDS011;65825;52.232;10.566;2023-11-18T06:34:10;0.00;;;0.00;;
76852;SDS011;65825;52.232;10.566;2023-11-18T06:37:34;0.00;;;0.00;;
76852;SDS011;65825;52.232;10.566;2023-11-18T06:40:59;0.17;;;0.17;;
76852;SDS011;65825;52.232;10.566;2023-11-18T06:44:23;0.10;;;0.10;;
76852;SDS011;65825;52.232;10.566;2023-11-18T06:47:47;0.00;;;0.00;;
76852;SDS011;65825;52.232;10.566;2023-11-18T06:51:11;0.00;;;0.00;;
76852;SDS011;65825;52.232;10.566;2023-11-18T06:54:37;0.00;;;0.00;;
76852;SDS011;65825;52.232;10.566;2023-11-18T06:58:04;0.05;;;0.05;;
76852;SDS011;65825;52.232;10.566;2023-11-18T07:01:29;0.00;;;0.00;;
76852;SDS011;65825;52.232;10.566;2023-11-18T07:04:53;0.03;;;0.00;;
76852;SDS011;65825;52.232;10.566;2023-11-18T07:08:17;0.10;;;0.10;;
76852;SDS011;65825;52.232;10.566;2023-11-18T07:11:46;0.10;;;0.10;;
76852;SDS011;65825;52.232;10.566;2023-11-18T07:15:10;0.00;;;0.00;;
76852;SDS011;65825;52.232;10.566;2023-11-18T07:18:34;0.00;;;0.00;;
76852;SDS011;65825;52.232;10.566;2023-11-18T07:21:58;0.00;;;0.00;;
76852;SDS011;65825;52.232;10.566;2023-11-18T07:25:22;0.20;;;0.10;;
76852;SDS011;65825;52.232;10.566;2023-11-18T07:28:46;0.10;;;0.10;;
76852;SDS011;65825;52.232;10.566;2023-11-18T07:32:10;0.00;;;0.00;;
76852;SDS011;65825;52.232;10.566;2023-11-18T07:35:35;0.10;;;0.10;;
76852;SDS011;65825;52.232;10.566;2023-11-18T07:38:59;0.00;;;0.00;;
76852;SDS011;65825;52.232;10.566;2023-11-18T07:42:25;0.00;;;0.00;;
76852;SDS011;65825;52.232;10.566;2023-11-18T07:45:49;0.00;;;0.00;;
76852;SDS011;65825;52.232;10.566;2023-11-18T07:49:14;0.08;;;0.08;;
76852;SDS011;65825;52.232;10.566;2023-11-18T07:52:39;0.00;;;0.00;;
76852;SDS011;65825;52.232;10.566;2023-11-18T07:56:03;0.20;;;0.20;;
76852;SDS011;65825;52.232;10.566;2023-11-18T07:59:29;0.05;;;0.05;;
76852;SDS011;65825;52.232;10.566;2023-11-18T08:02:56;0.00;;;0.00;;
76852;SDS011;65825;52.232;10.566;2023-11-18T08:06:20;0.10;;;0.00;;
76852;SDS011;65825;52.232;10.566;2023-11-18T08:09:44;0.00;;;0.00;;
76852;SDS011;65825;52.232;10.566;2023-11-18T08:13:09;0.10;;;0.00;;
76852;SDS011;65825;52.232;10.566;2023-11-18T08:16:33;0.00;;;0.00;;
76852;SDS011;65825;52.232;10.566;2023-11-18T08:19:57;0.00;;;0.00;;
76852;SDS011;65825;52.232;10.566;2023-11-18T08:23:22;0.00;;;0.00;;
76852;SDS011;65825;52.232;10.566;2023-11-18T08:26:46;0.00;;;0.00;;
76852;SDS011;65825;52.232;10.566;2023-11-18T08:30:11;0.00;;;0.00;;
76852;SDS011;65825;52.232;10.566;2023-11-18T08:33:35;0.00;;;0.00;;
76852;SDS011;65825;52.232;10.566;2023-11-18T08:37:00;0.00;;;0.00;;
76852;SDS011;65825;52.232;10.566;2023-11-18T08:40:25;0.00;;;0.00;;
76852;SDS011;65825;52.232;10.566;2023-11-18T08:43:49;0.00;;;0.00;;
76852;SDS011;65825;52.232;10.566;2023-11-18T08:47:13;0.00;;;0.00;;
76852;SDS011;65825;52.232;10.566;2023-11-18T08:50:37;0.00;;;0.00;;
76852;SDS011;65825;52.232;10.566;2023-11-18T08:54:07;0.10;;;0.10;;
76852;SDS011;65825;52.232;10.566;2023-11-18T08:57:44;0.00;;;0.00;;
76852;SDS011;65825;52.232;10.566;2023-11-18T09:01:09;0.00;;;0.00;;
76852;SDS011;65825;52.232;10.566;2023-11-18T09:04:40;0.00;;;0.00;;
76852;SDS011;65825;52.232;10.566;2023-11-18T09:08:04;0.00;;;0.00;;
76852;SDS011;65825;52.232;10.566;2023-11-18T09:11:34;0.10;;;0.10;;
76852;SDS011;65825;52.232;10.566;2023-11-18T09:14:59;0.10;;;0.10;;
76852;SDS011;65825;52.232;10.566;2023-11-18T09:18:33;0.10;;;0.10;;
76852;SDS011;65825;52.232;10.566;2023-11-18T09:21:57;0.10;;;0.10;;
76852;SDS011;65825;52.232;10.566;2023-11-18T09:25:21;0.08;;;0.08;;
76852;SDS011;65825;52.232;10.566;2023-11-18T09:28:46;0.00;;;0.00;;
76852;SDS011;65825;52.232;10.566;2023-11-18T09:32:10;0.00;;;0.00;;
76852;SDS011;65825;52.232;10.566;2023-11-18T09:35:39;0.10;;;0.10;;
76852;SDS011;65825;52.232;10.566;2023-11-18T09:39:03;0.00;;;0.00;;
76852;SDS011;65825;52.232;10.566;2023-11-18T09:42:36;0.20;;;0.20;;
76852;SDS011;65825;52.232;10.566;2023-11-18T09:46:22;0.00;;;0.00;;
76852;SDS011;65825;52.232;10.566;2023-11-18T09:49:49;0.03;;;0.03;;
76852;SDS011;65825;52.232;10.566;2023-11-18T09:53:16;0.10;;;0.10;;
76852;SDS011;65825;52.232;10.566;2023-11-18T09:56:41;0.10;;;0.10;;
76852;SDS011;65825;52.232;10.566;2023-11-18T10:00:12;0.20;;;0.20;;
76852;SDS011;65825;52.232;10.566;2023-11-18T10:03:39;0.30;;;0.30;;
76852;SDS011;65825;52.232;10.566;2023-11-18T10:07:04;0.30;;;0.30;;
76852;SDS011;65825;52.232;10.566;2023-11-18T10:10:30;0.30;;;0.30;;
76852;SDS011;65825;52.232;10.566;2023-11-18T10:13:54;0.28;;;0.28;;
76852;SDS011;65825;52.232;10.566;2023-11-18T10:17:19;0.20;;;0.20;;
76852;SDS011;65825;52.232;10.566;2023-11-18T10:20:48;0.40;;;0.40;;
76852;SDS011;65825;52.232;10.566;2023-11-18T10:24:15;0.20;;;0.20;;
76852;SDS011;65825;52.232;10.566;2023-11-18T10:27:48;0.40;;;0.40;;
76852;SDS011;65825;52.232;10.566;2023-11-18T10:31:17;0.30;;;0.30;;
76852;SDS011;65825;52.232;10.566;2023-11-18T10:34:45;0.22;;;0.22;;
76852;SDS011;65825;52.232;10.566;2023-11-18T10:38:20;0.20;;;0.20;;
76852;SDS011;65825;52.232;10.566;2023-11-18T10:45:13;0.20;;;0.20;;
76852;SDS011;65825;52.232;10.566;2023-11-18T10:48:48;0.10;;;0.10;;
76852;SDS011;65825;52.232;10.566;2023-11-18T10:52:16;0.20;;;0.20;;
76852;SDS011;65825;52.232;10.566;2023-11-18T10:55:40;0.20;;;0.20;;
76852;SDS011;65825;52.232;10.566;2023-11-18T10:59:10;0.10;;;0.10;;
76852;SDS011;65825;52.232;10.566;2023-11-18T11:02:44;0.00;;;0.00;;
76852;SDS011;65825;52.232;10.566;2023-11-18T11:06:17;0.10;;;0.10;;
76852;SDS011;65825;52.232;10.566;2023-11-18T11:09:44;0.13;;;0.10;;
76852;SDS011;65825;52.232;10.566;2023-11-18T11:13:08;0.40;;;0.40;;
76852;SDS011;65825;52.232;10.566;2023-11-18T11:16:37;0.43;;;0.43;;
76852;SDS011;65825;52.232;10.566;2023-11-18T11:20:08;0.30;;;0.30;;
76852;SDS011;65825;52.232;10.566;2023-11-18T11:23:50;0.35;;;0.35;;
76852;SDS011;65825;52.232;10.566;2023-11-18T11:27:46;0.10;;;0.10;;
76852;SDS011;65825;52.232;10.566;2023-11-18T11:34:56;0.13;;;0.13;;
76852;SDS011;65825;52.232;10.566;2023-11-18T11:38:22;0.13;;;0.13;;
76852;SDS011;65825;52.232;10.566;2023-11-18T11:45:22;0.10;;;0.10;;
76852;SDS011;65825;52.232;10.566;2023-11-18T11:48:49;0.10;;;0.10;;
76852;SDS011;65825;52.232;10.566;2023-11-18T11:59:35;0.10;;;0.10;;
76852;SDS011;65825;52.232;10.566;2023-11-18T12:03:00;0.00;;;0.00;;
76852;SDS011;65825;52.232;10.566;2023-11-18T12:06:31;0.13;;;0.13;;
76852;SDS011;65825;52.232;10.566;2023-11-18T12:10:00;0.00;;;0.00;;
76852;SDS011;65825;52.232;10.566;2023-11-18T12:13:24;0.03;;;0.03;;
76852;SDS011;65825;52.232;10.566;2023-11-18T12:24:19;0.05;;;0.05;;
76852;SDS011;65825;52.232;10.566;2023-11-18T12:27:47;0.00;;;0.00;;
76852;SDS011;65825;52.232;10.566;2023-11-18T12:31:10;0.10;;;0.10;;
76852;SDS011;65825;52.232;10.566;2023-11-18T12:38:38;0.10;;;0.10;;
76852;SDS011;65825;52.232;10.566;2023-11-18T12:42:20;0.00;;;0.00;;
76852;SDS011;65825;52.232;10.566;2023-11-18T12:49:39;0.00;;;0.00;;
76852;SDS011;65825;52.232;10.566;2023-11-18T12:53:05;0.00;;;0.00;;
76852;SDS011;65825;52.232;10.566;2023-11-18T12:56:32;0.00;;;0.00;;
76852;SDS011;65825;52.232;10.566;2023-11-18T13:00:03;0.10;;;0.10;;
76852;SDS011;65825;52.232;10.566;2023-11-18T13:03:27;0.00;;;0.00;;
76852;SDS011;65825;52.232;10.566;2023-11-18T13:06:55;0.15;;;0.15;;
76852;SDS011;65825;52.232;10.566;2023-11-18T13:10:19;0.10;;;0.10;;
76852;SDS011;65825;52.232;10.566;2023-11-18T13:13:43;0.00;;;0.00;;
76852;SDS011;65825;52.232;10.566;2023-11-18T13:17:11;0.00;;;0.00;;
76852;SDS011;65825;52.232;10.566;2023-11-18T13:20:37;0.00;;;0.00;;
76852;SDS011;65825;52.232;10.566;2023-11-18T13:24:01;0.10;;;0.10;;
76852;SDS011;65825;52.232;10.566;2023-11-18T13:27:25;0.00;;;0.00;;
76852;SDS011;65825;52.232;10.566;2023-11-18T13:30:50;0.00;;;0.00;;
76852;SDS011;65825;52.232;10.566;2023-11-18T13:34:14;0.00;;;0.00;;
76852;SDS011;65825;52.232;10.566;2023-11-18T13:37:45;0.10;;;0.10;;
76852;SDS011;65825;52.232;10.566;2023-11-18T13:41:13;0.10;;;0.10;;
76852;SDS011;65825;52.232;10.566;2023-11-18T13:45:00;0.05;;;0.00;;
76852;SDS011;65825;52.232;10.566;2023-11-18T13:48:27;0.00;;;0.00;;
76852;SDS011;65825;52.232;10.566;2023-11-18T13:51:55;0.03;;;0.03;;
76852;SDS011;65825;52.232;10.566;2023-11-18T13:55:19;0.00;;;0.00;;
76852;SDS011;65825;52.232;10.566;2023-11-18T13:58:43;0.10;;;0.10;;
76852;SDS011;65825;52.232;10.566;2023-11-18T14:02:09;0.10;;;0.10;;
76852;SDS011;65825;52.232;10.566;2023-11-18T14:05:36;0.00;;;0.00;;
76852;SDS011;65825;52.232;10.566;2023-11-18T14:09:00;0.00;;;0.00;;
76852;SDS011;65825;52.232;10.566;2023-11-18T14:12:24;0.03;;;0.03;;
76852;SDS011;65825;52.232;10.566;2023-11-18T14:15:48;0.00;;;0.00;;
76852;SDS011;65825;52.232;10.566;2023-11-18T14:19:12;0.00;;;0.00;;
76852;SDS011;65825;52.232;10.566;2023-11-18T14:22:38;0.08;;;0.08;;
76852;SDS011;65825;52.232;10.566;2023-11-18T14:26:02;0.00;;;0.00;;
76852;SDS011;65825;52.232;10.566;2023-11-18T14:29:26;0.00;;;0.00;;
76852;SDS011;65825;52.232;10.566;2023-11-18T14:32:53;0.00;;;0.00;;
76852;SDS011;65825;52.232;10.566;2023-11-18T14:36:19;0.00;;;0.00;;
76852;SDS011;65825;52.232;10.566;2023-11-18T14:39:44;0.00;;;0.00;;
76852;SDS011;65825;52.232;10.566;2023-11-18T14:43:08;0.00;;;0.00;;
76852;SDS011;65825;52.232;10.566;2023-11-18T14:46:34;0.00;;;0.00;;
76852;SDS011;65825;52.232;10.566;2023-11-18T14:49:58;0.05;;;0.05;;
76852;SDS011;65825;52.232;10.566;2023-11-18T14:53:22;0.00;;;0.00;;
76852;SDS011;65825;52.232;10.566;2023-11-18T14:56:46;0.00;;;0.00;;
76852;SDS011;65825;52.232;10.566;2023-11-18T15:00:11;0.10;;;0.10;;
76852;SDS011;65825;52.232;10.566;2023-11-18T15:03:35;0.03;;;0.03;;
76852;SDS011;65825;52.232;10.566;2023-11-18T15:06:59;0.00;;;0.00;;
76852;SDS011;65825;52.232;10.566;2023-11-18T15:10:25;0.00;;;0.00;;
76852;SDS011;65825;52.232;10.566;2023-11-18T15:13:52;0.08;;;0.08;;
76852;SDS011;65825;52.232;10.566;2023-11-18T15:17:16;0.00;;;0.00;;
76852;SDS011;65825;52.232;10.566;2023-11-18T15:20:45;0.00;;;0.00;;
76852;SDS011;65825;52.232;10.566;2023-11-18T15:24:10;0.10;;;0.10;;
76852;SDS011;65825;52.232;10.566;2023-11-18T15:27:37;0.00;;;0.00;;
76852;SDS011;65825;52.232;10.566;2023-11-18T15:31:01;0.00;;;0.00;;
76852;SDS011;65825;52.232;10.566;2023-11-18T15:34:25;0.03;;;0.03;;
76852;SDS011;65825;52.232;10.566;2023-11-18T15:37:48;0.05;;;0.05;;
76852;SDS011;65825;52.232;10.566;2023-11-18T15:41:12;0.00;;;0.00;;
76852;SDS011;65825;52.232;10.566;2023-11-18T15:44:38;0.00;;;0.00;;
76852;SDS011;65825;52.232;10.566;2023-11-18T15:48:02;0.10;;;0.10;;
76852;SDS011;65825;52.232;10.566;2023-11-18T15:51:26;0.00;;;0.00;;
76852;SDS011;65825;52.232;10.566;2023-11-18T15:54:50;0.00;;;0.00;;
76852;SDS011;65825;52.232;10.566;2023-11-18T15:58:14;0.00;;;0.00;;
76852;SDS011;65825;52.232;10.566;2023-11-18T16:01:38;0.00;;;0.00;;
76852;SDS011;65825;52.232;10.566;2023-11-18T16:05:02;0.00;;;0.00;;
76852;SDS011;65825;52.232;10.566;2023-11-18T16:08:25;0.00;;;0.00;;
76852;SDS011;65825;52.232;10.566;2023-11-18T16:11:49;0.00;;;0.00;;
76852;SDS011;65825;52.232;10.566;2023-11-18T16:15:16;0.00;;;0.00;;
76852;SDS011;65825;52.232;10.566;2023-11-18T16:18:40;0.08;;;0.03;;
76852;SDS011;65825;52.232;10.566;2023-11-18T16:22:03;0.00;;;0.00;;
76852;SDS011;65825;52.232;10.566;2023-11-18T16:25:28;0.10;;;0.10;;
76852;SDS011;65825;52.232;10.566;2023-11-18T16:28:52;0.03;;;0.03;;
76852;SDS011;65825;52.232;10.566;2023-11-18T16:32:16;0.00;;;0.00;;
76852;SDS011;65825;52.232;10.566;2023-11-18T16:35:39;0.08;;;0.08;;
76852;SDS011;65825;52.232;10.566;2023-11-18T16:39:04;0.00;;;0.00;;
76852;SDS011;65825;52.232;10.566;2023-11-18T16:42:29;0.03;;;0.03;;
76852;SDS011;65825;52.232;10.566;2023-11-18T16:45:53;0.10;;;0.00;;
76852;SDS011;65825;52.232;10.566;2023-11-18T16:49:17;0.00;;;0.00;;
76852;SDS011;65825;52.232;10.566;2023-11-18T16:52:42;0.00;;;0.00;;
76852;SDS011;65825;52.232;10.566;2023-11-18T16:56:06;0.00;;;0.00;;
76852;SDS011;65825;52.232;10.566;2023-11-18T16:59:30;0.00;;;0.00;;
76852;SDS011;65825;52.232;10.566;2023-11-18T17:02:56;0.00;;;0.00;;
76852;SDS011;65825;52.232;10.566;2023-11-18T17:06:20;0.10;;;0.10;;
76852;SDS011;65825;52.232;10.566;2023-11-18T17:09:43;0.00;;;0.00;;
76852;SDS011;65825;52.232;10.566;2023-11-18T17:13:08;0.00;;;0.00;;
76852;SDS011;65825;52.232;10.566;2023-11-18T17:16:32;0.00;;;0.00;;
76852;SDS011;65825;52.232;10.566;2023-11-18T17:19:56;0.10;;;0.10;;
76852;SDS011;65825;52.232;10.566;2023-11-18T17:23:20;0.00;;;0.00;;
76852;SDS011;65825;52.232;10.566;2023-11-18T17:26:43;0.00;;;0.00;;
76852;SDS011;65825;52.232;10.566;2023-11-18T17:30:09;0.00;;;0.00;;
76852;SDS011;65825;52.232;10.566;2023-11-18T17:33:33;0.00;;;0.00;;
76852;SDS011;65825;52.232;10.566;2023-11-18T17:36:57;0.00;;;0.00;;
76852;SDS011;65825;52.232;10.566;2023-11-18T17:40:21;0.00;;;0.00;;
76852;SDS011;65825;52.232;10.566;2023-11-18T17:43:48;0.00;;;0.00;;
76852;SDS011;65825;52.232;10.566;2023-11-18T17:47:12;0.10;;;0.10;;
76852;SDS011;65825;52.232;10.566;2023-11-18T17:50:36;0.00;;;0.00;;
76852;SDS011;65825;52.232;10.566;2023-11-18T17:53:59;0.00;;;0.00;;
76852;SDS011;65825;52.232;10.566;2023-11-18T17:57:24;0.00;;;0.00;;
76852;SDS011;65825;52.232;10.566;2023-11-18T18:00:48;0.00;;;0.00;;
76852;SDS011;65825;52.232;10.566;2023-11-18T18:04:12;0.00;;;0.00;;
76852;SDS011;65825;52.232;10.566;2023-11-18T18:07:39;0.00;;;0.00;;
76852;SDS011;65825;52.232;10.566;2023-11-18T18:11:04;0.05;;;0.05;;
76852;SDS011;65825;52.232;10.566;2023-11-18T18:14:28;0.10;;;0.10;;
76852;SDS011;65825;52.232;10.566;2023-11-18T18:17:52;0.00;;;0.00;;
76852;SDS011;65825;52.232;10.566;2023-11-18T18:21:16;0.00;;;0.00;;
76852;SDS011;65825;52.232;10.566;2023-11-18T18:24:40;0.00;;;0.00;;
76852;SDS011;65825;52.232;10.566;2023-11-18T18:28:04;0.00;;;0.00;;
76852;SDS011;65825;52.232;10.566;2023-11-18T18:31:28;0.00;;;0.00;;
76852;SDS011;65825;52.232;10.566;2023-11-18T18:34:52;0.00;;;0.00;;
76852;SDS011;65825;52.232;10.566;2023-11-18T18:38:16;0.00;;;0.00;;
76852;SDS011;65825;52.232;10.566;2023-11-18T18:41:42;0.00;;;0.00;;
76852;SDS011;65825;52.232;10.566;2023-11-18T18:45:06;0.00;;;0.00;;
76852;SDS011;65825;52.232;10.566;2023-11-18T18:48:32;0.00;;;0.00;;
76852;SDS011;65825;52.232;10.566;2023-11-18T18:51:56;0.00;;;0.00;;
76852;SDS011;65825;52.232;10.566;2023-11-18T18:55:20;0.00;;;0.00;;
76852;SDS011;65825;52.232;10.566;2023-11-18T18:58:44;0.08;;;0.08;;
76852;SDS011;65825;52.232;10.566;2023-11-18T19:02:08;0.10;;;0.10;;
76852;SDS011;65825;52.232;10.566;2023-11-18T19:05:32;0.10;;;0.10;;
76852;SDS011;65825;52.232;10.566;2023-11-18T19:08:58;0.00;;;0.00;;
76852;SDS011;65825;52.232;10.566;2023-11-18T19:12:22;0.00;;;0.00;;
76852;SDS011;65825;52.232;10.566;2023-11-18T19:15:46;0.00;;;0.00;;
76852;SDS011;65825;52.232;10.566;2023-11-18T19:19:10;0.00;;;0.00;;
76852;SDS011;65825;52.232;10.566;2023-11-18T19:22:39;0.00;;;0.00;;
76852;SDS011;65825;52.232;10.566;2023-11-18T19:26:04;0.00;;;0.00;;
76852;SDS011;65825;52.232;10.566;2023-11-18T19:29:34;0.00;;;0.00;;
76852;SDS011;65825;52.232;10.566;2023-11-18T19:32:58;0.00;;;0.00;;
76852;SDS011;65825;52.232;10.566;2023-11-18T19:36:23;0.00;;;0.00;;
76852;SDS011;65825;52.232;10.566;2023-11-18T19:39:47;0.00;;;0.00;;
76852;SDS011;65825;52.232;10.566;2023-11-18T19:43:11;0.00;;;0.00;;
76852;SDS011;65825;52.232;10.566;2023-11-18T19:46:34;0.00;;;0.00;;
76852;SDS011;65825;52.232;10.566;2023-11-18T19:50:04;0.00;;;0.00;;
76852;SDS011;65825;52.232;10.566;2023-11-18T19:53:32;0.00;;;0.00;;
76852;SDS011;65825;52.232;10.566;2023-11-18T19:56:56;0.00;;;0.00;;
76852;SDS011;65825;52.232;10.566;2023-11-18T20:00:20;0.00;;;0.00;;
76852;SDS011;65825;52.232;10.566;2023-11-18T20:03:44;0.00;;;0.00;;
76852;SDS011;65825;52.232;10.566;2023-11-18T20:07:08;0.00;;;0.00;;
76852;SDS011;65825;52.232;10.566;2023-11-18T20:10:32;0.00;;;0.00;;
76852;SDS011;65825;52.232;10.566;2023-11-18T20:13:57;0.00;;;0.00;;
76852;SDS011;65825;52.232;10.566;2023-11-18T20:17:20;0.00;;;0.00;;
76852;SDS011;65825;52.232;10.566;2023-11-18T20:20:45;0.13;;;0.00;;
76852;SDS011;65825;52.232;10.566;2023-11-18T20:24:09;0.05;;;0.05;;
76852;SDS011;65825;52.232;10.566;2023-11-18T20:27:33;0.00;;;0.00;;
76852;SDS011;65825;52.232;10.566;2023-11-18T20:31:00;0.05;;;0.05;;
76852;SDS011;65825;52.232;10.566;2023-11-18T20:34:23;0.00;;;0.00;;
76852;SDS011;65825;52.232;10.566;2023-11-18T20:37:49;0.00;;;0.00;;
76852;SDS011;65825;52.232;10.566;2023-11-18T20:41:12;0.00;;;0.00;;
76852;SDS011;65825;52.232;10.566;2023-11-18T20:44:37;0.00;;;0.00;;
76852;SDS011;65825;52.232;10.566;2023-11-18T20:48:01;0.00;;;0.00;;
76852;SDS011;65825;52.232;10.566;2023-11-18T20:51:25;0.00;;;0.00;;